createdAt,value
2022-12-06T00:02:22.222Z,5.60
2022-12-06T00:05:24.017Z,6.97
2022-12-06T00:08:25.736Z,6.87
2022-12-06T00:11:30.710Z,5.63
2022-12-06T00:14:32.507Z,6.60
2022-12-06T00:17:37.589Z,6.27
2022-12-06T00:20:41.881Z,6.30
2022-12-06T00:23:46.015Z,7.17
2022-12-06T00:26:49.066Z,6.80
2022-12-06T00:29:50.934Z,7.67
2022-12-06T00:32:52.919Z,7.53
2022-12-06T00:36:00.078Z,7.30
2022-12-06T00:39:08.350Z,7.37
2022-12-06T00:42:10.071Z,6.30
2022-12-06T00:45:11.792Z,8.03
2022-12-06T00:48:13.518Z,8.13
2022-12-06T00:51:16.550Z,7.43
2022-12-06T00:54:18.288Z,7.10
2022-12-06T00:57:20.038Z,6.77
2022-12-06T01:00:21.831Z,8.57
2022-12-06T01:03:23.711Z,7.53
2022-12-06T01:06:28.771Z,8.03
2022-12-06T01:09:30.984Z,6.93
2022-12-06T01:12:32.653Z,6.60
2022-12-06T01:15:37.773Z,6.60
2022-12-06T01:18:40.399Z,6.03
2022-12-06T01:21:42.110Z,6.83
2022-12-06T01:24:43.816Z,6.00
2022-12-06T01:27:45.548Z,6.40
2022-12-06T01:30:47.309Z,5.67
2022-12-06T01:33:49.053Z,6.70
2022-12-06T01:36:50.801Z,6.73
2022-12-06T01:39:52.459Z,6.40
2022-12-06T01:42:54.151Z,6.70
2022-12-06T01:45:57.264Z,7.27
2022-12-06T01:49:05.926Z,7.03
2022-12-06T01:52:12.255Z,7.13
2022-12-06T01:55:15.907Z,6.37
2022-12-06T01:58:23.780Z,5.77
2022-12-06T02:01:27.272Z,7.17
2022-12-06T02:04:30.645Z,6.33
2022-12-06T02:07:33.377Z,6.47
2022-12-06T02:10:36.149Z,7.03
2022-12-06T02:13:38.804Z,6.50
2022-12-06T02:17:03.953Z,7.20
2022-12-06T02:20:34.477Z,6.97
2022-12-06T02:24:02.037Z,6.97
2022-12-06T02:27:41.339Z,7.27
2022-12-06T02:30:59.770Z,7.53
2022-12-06T02:34:14.552Z,6.60
2022-12-06T02:37:38.461Z,7.00
2022-12-06T02:40:48.723Z,7.20
2022-12-06T02:44:15.124Z,6.50
2022-12-06T02:47:20.678Z,5.97
2022-12-06T02:50:28.960Z,7.33
2022-12-06T02:53:33.996Z,8.00
2022-12-06T02:56:36.050Z,7.63
2022-12-06T02:59:37.700Z,6.80
2022-12-06T03:02:39.945Z,7.43
2022-12-06T03:06:02.059Z,7.37
2022-12-06T03:09:32.832Z,7.10
2022-12-06T03:13:00.466Z,7.00
2022-12-06T03:16:28.685Z,7.20
2022-12-06T03:19:31.745Z,7.23
2022-12-06T03:22:41.659Z,7.53
2022-12-06T03:25:45.247Z,7.60
2022-12-06T03:28:50.280Z,7.60
2022-12-06T03:31:52.916Z,7.23
2022-12-06T03:34:58.891Z,8.17
2022-12-06T03:38:11.793Z,9.20
2022-12-06T03:41:16.394Z,7.33
2022-12-06T03:44:19.108Z,8.93
2022-12-06T03:47:33.790Z,8.00
2022-12-06T03:50:43.221Z,8.33
2022-12-06T03:53:51.711Z,8.20
2022-12-06T03:56:53.328Z,9.83
2022-12-06T03:59:54.979Z,7.43
2022-12-06T04:02:56.647Z,8.13
2022-12-06T04:05:58.263Z,7.80
2022-12-06T04:09:18.480Z,7.50
2022-12-06T04:12:38.856Z,7.70
2022-12-06T04:15:40.631Z,7.63
2022-12-06T04:18:42.299Z,8.60
2022-12-06T04:22:02.439Z,7.60
2022-12-06T04:25:04.309Z,7.03
2022-12-06T04:28:24.838Z,7.53
2022-12-06T04:31:45.829Z,7.53
2022-12-06T04:35:06.069Z,7.87
2022-12-06T04:38:26.632Z,7.43
2022-12-06T04:41:47.222Z,7.50
2022-12-06T04:44:49.023Z,7.33
2022-12-06T04:47:50.857Z,8.33
2022-12-06T04:50:52.560Z,6.93
2022-12-06T04:53:54.271Z,7.77
2022-12-06T04:56:57.496Z,8.10
2022-12-06T04:59:59.441Z,6.93
2022-12-06T05:03:01.335Z,7.83
2022-12-06T05:06:03.424Z,7.50
2022-12-06T05:09:05.633Z,8.00
2022-12-06T05:12:07.624Z,7.40
2022-12-06T05:15:09.616Z,6.30
2022-12-06T05:18:11.884Z,7.87
2022-12-06T05:21:17.528Z,6.83
2022-12-06T05:24:19.142Z,7.20
2022-12-06T05:27:20.761Z,7.20
2022-12-06T05:30:22.439Z,6.33
2022-12-06T05:33:25.122Z,6.70
2022-12-06T05:36:27.627Z,6.70
2022-12-06T05:39:29.485Z,6.03
2022-12-06T05:42:31.269Z,6.17
2022-12-06T05:45:33.045Z,7.30
2022-12-06T05:48:35.227Z,5.97
2022-12-06T05:51:36.880Z,6.50
2022-12-06T05:54:38.538Z,6.07
2022-12-06T05:57:45.452Z,4.77
2022-12-06T06:00:50.518Z,6.27
2022-12-06T06:03:52.532Z,6.77
2022-12-06T06:06:54.203Z,6.60
2022-12-06T06:09:56.111Z,6.30
2022-12-06T06:12:57.759Z,5.60
2022-12-06T06:15:59.447Z,6.03
2022-12-06T06:19:02.418Z,5.93
2022-12-06T06:22:04.076Z,8.40
2022-12-06T06:25:06.473Z,7.13
2022-12-06T06:28:08.116Z,5.80
2022-12-06T06:31:09.994Z,5.37
2022-12-06T06:34:11.637Z,6.10
2022-12-06T06:37:13.296Z,4.87
2022-12-06T06:40:15.113Z,5.07
2022-12-06T06:43:20.157Z,5.67
2022-12-06T06:46:21.935Z,5.17
2022-12-06T06:49:23.618Z,5.53
2022-12-06T06:52:25.332Z,5.37
2022-12-06T06:55:26.980Z,5.67
2022-12-06T06:58:28.865Z,4.83
2022-12-06T07:01:30.866Z,5.40
2022-12-06T07:04:32.515Z,4.93
2022-12-06T07:07:34.251Z,5.57
2022-12-06T07:10:36.016Z,5.63
2022-12-06T07:13:39.678Z,6.27
2022-12-06T07:16:41.374Z,6.17
2022-12-06T07:19:43.032Z,5.43
2022-12-06T07:22:45.050Z,6.63
2022-12-06T07:25:46.681Z,6.03
2022-12-06T07:28:50.255Z,6.67
2022-12-06T07:31:51.910Z,5.83
2022-12-06T07:34:53.536Z,6.03
2022-12-06T07:37:55.590Z,5.97
2022-12-06T07:41:27.635Z,7.77
2022-12-06T07:44:48.143Z,4.97
2022-12-06T07:47:49.912Z,7.17
2022-12-06T07:50:52.404Z,5.70
2022-12-06T07:53:55.067Z,7.83
2022-12-06T07:56:56.745Z,5.60
2022-12-06T07:59:58.692Z,4.70
2022-12-06T08:03:00.511Z,3.90
2022-12-06T08:06:02.195Z,5.77
2022-12-06T08:09:04.466Z,5.97
2022-12-06T08:12:06.867Z,5.80
2022-12-06T08:15:12.904Z,6.23
2022-12-06T08:18:14.560Z,4.90
2022-12-06T08:21:17.521Z,5.80
2022-12-06T08:24:19.328Z,4.87
2022-12-06T08:27:20.975Z,5.80
2022-12-06T08:30:22.668Z,7.03
2022-12-06T08:33:24.896Z,4.80
2022-12-06T08:36:28.369Z,5.37
2022-12-06T08:39:30.076Z,4.50
2022-12-06T08:42:31.797Z,4.57
2022-12-06T08:45:34.476Z,4.93
2022-12-06T08:48:39.853Z,5.10
2022-12-06T08:51:44.886Z,5.43
2022-12-06T08:54:47.107Z,4.20
2022-12-06T08:57:48.788Z,5.07
2022-12-06T09:00:50.486Z,4.00
2022-12-06T09:03:52.547Z,4.50
2022-12-06T09:06:54.206Z,4.80
2022-12-06T09:09:55.949Z,5.13
2022-12-06T09:12:57.620Z,4.43
2022-12-06T09:15:59.310Z,3.93
2022-12-06T09:19:01.429Z,5.20
2022-12-06T09:22:03.377Z,4.50
2022-12-06T09:25:05.216Z,4.00
2022-12-06T09:28:06.855Z,4.40
2022-12-06T09:31:09.408Z,4.83
2022-12-06T09:34:12.523Z,5.20
2022-12-06T09:37:14.399Z,5.37
2022-12-06T09:40:36.218Z,5.97
2022-12-06T09:43:48.834Z,5.77
2022-12-06T09:47:24.649Z,5.00
2022-12-06T09:50:45.014Z,7.20
2022-12-06T09:54:04.131Z,5.20
2022-12-06T09:57:32.802Z,5.40
2022-12-06T10:00:45.290Z,5.00
2022-12-06T10:04:26.008Z,5.03
2022-12-06T10:07:27.586Z,4.33
2022-12-06T10:10:44.128Z,4.77
2022-12-06T10:14:06.972Z,4.73
2022-12-06T10:17:27.496Z,4.43
2022-12-06T10:20:51.418Z,5.37
2022-12-06T10:24:11.930Z,5.20
2022-12-06T10:27:28.786Z,5.20
2022-12-06T10:30:30.794Z,4.97
2022-12-06T10:33:52.048Z,3.93
2022-12-06T10:37:09.821Z,4.33
2022-12-06T10:40:26.340Z,4.27
2022-12-06T10:43:37.000Z,3.57
2022-12-06T10:47:04.119Z,3.57
2022-12-06T10:50:16.556Z,3.67
2022-12-06T10:53:22.408Z,3.37
2022-12-06T10:56:28.585Z,4.03
2022-12-06T10:59:42.642Z,4.00
2022-12-06T11:03:15.051Z,2.97
2022-12-06T11:06:36.973Z,3.93
2022-12-06T11:09:45.960Z,3.57
2022-12-06T11:12:53.441Z,3.67
2022-12-06T11:16:05.478Z,2.50
2022-12-06T11:19:19.255Z,2.67
2022-12-06T11:22:41.856Z,2.60
2022-12-06T11:26:00.696Z,2.67
2022-12-06T11:29:06.065Z,2.50
2022-12-06T11:32:08.396Z,2.63
2022-12-06T11:35:15.827Z,2.60
2022-12-06T11:38:17.771Z,2.30
2022-12-06T11:41:26.310Z,2.43
2022-12-06T11:44:48.080Z,2.27
2022-12-06T11:47:54.261Z,2.63
2022-12-06T11:50:55.939Z,2.53
2022-12-06T11:54:00.654Z,2.17
2022-12-06T11:57:23.048Z,2.20
2022-12-06T12:00:26.040Z,2.27
2022-12-06T12:03:30.846Z,2.20
2022-12-06T12:06:33.335Z,2.10
2022-12-06T12:09:54.036Z,2.23
2022-12-06T12:13:14.944Z,1.90
2022-12-06T12:16:18.642Z,1.77
2022-12-06T12:19:37.652Z,1.57
2022-12-06T12:22:42.717Z,1.63
2022-12-06T12:25:59.676Z,1.67
2022-12-06T12:29:16.934Z,1.53
2022-12-06T12:32:19.363Z,1.40
2022-12-06T12:35:21.281Z,1.47
2022-12-06T12:38:38.478Z,2.20
2022-12-06T12:41:43.858Z,1.40
2022-12-06T12:44:46.322Z,1.70
2022-12-06T12:47:58.038Z,1.70
2022-12-06T12:51:02.869Z,1.90
2022-12-06T12:54:18.165Z,1.40
2022-12-06T12:57:19.835Z,1.80
2022-12-06T13:00:29.796Z,1.40
2022-12-06T13:03:50.742Z,1.50
2022-12-06T13:07:07.239Z,1.73
2022-12-06T13:10:17.847Z,1.40
2022-12-06T13:13:33.754Z,1.87
2022-12-06T13:16:36.719Z,1.53
2022-12-06T13:19:41.504Z,1.43
2022-12-06T13:22:45.417Z,1.80
2022-12-06T13:26:05.476Z,1.90
2022-12-06T13:29:34.376Z,1.93
2022-12-06T13:32:45.637Z,1.70
2022-12-06T13:35:57.870Z,1.70
2022-12-06T13:39:19.647Z,1.77
2022-12-06T13:42:23.728Z,1.90
2022-12-06T13:45:45.205Z,2.10
2022-12-06T13:49:25.811Z,1.80
2022-12-06T13:52:42.613Z,1.90
2022-12-06T13:55:56.118Z,1.77
2022-12-06T13:59:03.677Z,2.10
2022-12-06T14:02:43.102Z,2.07
2022-12-06T14:09:00.085Z,3.07
2022-12-06T14:12:10.271Z,1.70
2022-12-06T14:15:19.332Z,2.57
2022-12-06T14:18:27.608Z,2.03
2022-12-06T14:21:39.053Z,2.63
2022-12-06T14:24:53.844Z,2.70
2022-12-06T14:28:13.059Z,1.43
2022-12-06T14:31:22.720Z,1.83
2022-12-06T14:34:30.286Z,1.57
2022-12-06T14:37:31.984Z,2.30
2022-12-06T14:41:02.887Z,1.43
2022-12-06T14:44:15.836Z,1.20
2022-12-06T14:47:19.933Z,1.93
2022-12-06T14:50:43.559Z,1.53
2022-12-06T14:53:45.232Z,1.40
2022-12-06T14:56:47.279Z,1.60
2022-12-06T15:00:19.390Z,1.30
2022-12-06T15:03:25.495Z,1.73
2022-12-06T15:06:29.669Z,1.20
2022-12-06T15:09:43.817Z,1.40
2022-12-06T15:12:57.681Z,1.80
2022-12-06T15:16:11.683Z,2.93
2022-12-06T15:19:15.396Z,2.10
2022-12-06T15:22:25.241Z,1.83
2022-12-06T15:25:27.339Z,2.10
2022-12-06T15:28:29.169Z,1.87
2022-12-06T15:31:31.877Z,2.17
2022-12-06T15:34:37.446Z,2.60
2022-12-06T15:37:40.407Z,1.90
2022-12-06T15:40:49.983Z,1.80
2022-12-06T15:43:53.354Z,2.33
2022-12-06T15:46:55.256Z,2.07
2022-12-06T15:49:58.223Z,2.60
2022-12-06T15:53:00.115Z,2.30
2022-12-06T15:56:01.752Z,3.03
2022-12-06T15:59:03.424Z,2.40
2022-12-06T16:02:16.453Z,4.20
2022-12-06T16:05:18.341Z,12.70
2022-12-06T16:08:20.106Z,4.00
2022-12-06T16:11:25.173Z,3.23
2022-12-06T16:14:26.856Z,3.20
2022-12-06T16:17:28.510Z,2.50
2022-12-06T16:20:33.137Z,2.60
2022-12-06T16:27:14.993Z,1.83
2022-12-06T16:30:17.089Z,1.87
2022-12-06T16:33:21.795Z,2.20
2022-12-06T16:36:26.681Z,1.73
2022-12-06T16:39:30.039Z,2.83
2022-12-06T16:42:31.765Z,1.90
2022-12-06T16:45:42.494Z,3.47
2022-12-06T16:48:44.176Z,3.60
2022-12-06T16:51:45.813Z,3.33
2022-12-06T16:54:47.581Z,3.87
2022-12-06T16:57:49.274Z,2.90
2022-12-06T17:00:50.997Z,2.93
2022-12-06T17:03:54.674Z,2.83
2022-12-06T17:06:56.331Z,2.80
2022-12-06T17:09:58.194Z,2.50
2022-12-06T17:12:59.980Z,3.60
2022-12-06T17:16:01.778Z,2.87
2022-12-06T17:19:05.534Z,3.87
2022-12-06T17:22:08.775Z,2.80
2022-12-06T17:25:12.360Z,2.87
2022-12-06T17:28:14.009Z,3.73
2022-12-06T17:31:15.831Z,3.53
2022-12-06T17:34:18.526Z,2.37
2022-12-06T17:37:20.171Z,2.90
2022-12-06T17:40:21.841Z,3.43
2022-12-06T17:43:23.488Z,2.83
2022-12-06T17:46:25.428Z,2.73
2022-12-06T17:49:27.778Z,2.40
2022-12-06T17:52:29.524Z,2.90
2022-12-06T17:55:31.228Z,3.23
2022-12-06T17:58:32.923Z,3.20
2022-12-06T18:02:06.133Z,2.80
2022-12-06T18:04:57.781Z,4.57
2022-12-06T18:07:59.508Z,3.43
2022-12-06T18:11:01.211Z,2.53
2022-12-06T18:14:03.906Z,3.23
2022-12-06T18:17:05.653Z,3.00
2022-12-06T18:20:09.011Z,6.40
2022-12-06T18:23:10.693Z,5.17
2022-12-06T18:26:15.269Z,5.53
2022-12-06T18:29:19.618Z,3.97
2022-12-06T18:32:21.265Z,5.07
2022-12-06T18:35:22.943Z,4.00
2022-12-06T18:38:25.500Z,5.07
2022-12-06T18:41:29.073Z,4.10
2022-12-06T18:44:30.816Z,3.50
2022-12-06T18:47:32.441Z,3.30
2022-12-06T18:50:34.224Z,3.33
2022-12-06T18:53:37.415Z,4.03
2022-12-06T18:56:39.241Z,3.27
2022-12-06T18:59:40.900Z,4.03
2022-12-06T19:02:42.640Z,4.10
2022-12-06T19:06:02.445Z,3.97
2022-12-06T19:09:11.398Z,4.40
2022-12-06T19:12:13.121Z,4.23
2022-12-06T19:15:14.802Z,5.87
2022-12-06T19:18:16.575Z,5.67
2022-12-06T19:21:18.280Z,7.60
2022-12-06T19:24:25.118Z,4.07
2022-12-06T19:27:26.867Z,6.47
2022-12-06T19:30:29.489Z,5.77
2022-12-06T19:33:35.258Z,7.37
2022-12-06T19:36:36.901Z,4.87
2022-12-06T19:39:38.633Z,5.20
2022-12-06T19:43:15.615Z,6.23
2022-12-06T19:46:25.677Z,5.80
2022-12-06T19:49:28.449Z,5.73
2022-12-06T19:52:31.135Z,4.77
2022-12-06T19:55:32.986Z,5.17
2022-12-06T19:58:34.684Z,5.17
2022-12-06T20:01:36.498Z,4.73
2022-12-06T20:04:41.099Z,5.17
2022-12-06T20:07:42.935Z,4.43
2022-12-06T20:10:44.631Z,5.73
2022-12-06T20:13:46.283Z,6.83
2022-12-06T20:16:48.345Z,7.57
2022-12-06T20:19:50.321Z,6.93
2022-12-06T20:22:51.984Z,6.90
2022-12-06T20:25:56.847Z,6.13
2022-12-06T20:28:59.253Z,7.27
2022-12-06T20:32:01.433Z,6.10
2022-12-06T20:35:03.336Z,7.40
2022-12-06T20:38:05.376Z,6.43
2022-12-06T20:41:08.990Z,7.03
2022-12-06T20:44:10.792Z,6.53
2022-12-06T20:47:12.538Z,7.47
2022-12-06T20:50:16.158Z,7.50
2022-12-06T20:53:17.803Z,7.20
2022-12-06T20:56:22.108Z,8.10
2022-12-06T20:59:23.823Z,7.97
2022-12-06T21:02:25.586Z,8.10
2022-12-06T21:05:27.301Z,8.17
2022-12-06T21:08:29.582Z,8.87
2022-12-06T21:11:31.647Z,7.03
2022-12-06T21:14:33.334Z,8.10
2022-12-06T21:17:35.002Z,7.70
2022-12-06T21:20:40.128Z,8.73
2022-12-06T21:23:41.807Z,8.47
2022-12-06T21:26:44.207Z,8.37
2022-12-06T21:29:48.196Z,8.30
2022-12-06T21:32:49.977Z,8.60
2022-12-06T21:35:52.831Z,8.23
2022-12-06T21:38:56.125Z,8.63
2022-12-06T21:41:58.066Z,9.13
2022-12-06T21:44:59.732Z,8.03
2022-12-06T21:48:01.563Z,8.47
2022-12-06T21:51:05.923Z,8.50
2022-12-06T21:54:07.599Z,8.50
2022-12-06T21:57:09.236Z,8.33
2022-12-06T22:00:11.776Z,8.23
2022-12-06T22:03:22.749Z,8.50
2022-12-06T22:06:25.981Z,8.43
2022-12-06T22:09:27.678Z,8.73
2022-12-06T22:12:29.600Z,8.37
2022-12-06T22:15:32.621Z,8.90
2022-12-06T22:18:41.009Z,9.83
2022-12-06T22:21:47.607Z,8.93
2022-12-06T22:24:49.338Z,8.37
2022-12-06T22:27:53.099Z,8.23
2022-12-06T22:30:54.789Z,8.50
2022-12-06T22:33:58.076Z,7.00
2022-12-06T22:36:59.706Z,7.90
2022-12-06T22:40:01.742Z,8.23
2022-12-06T22:43:07.885Z,9.60
2022-12-06T22:46:12.661Z,9.20
2022-12-06T22:49:17.990Z,8.10
2022-12-06T22:52:20.048Z,7.47
2022-12-06T22:55:21.720Z,7.57
2022-12-06T22:58:23.393Z,7.57
2022-12-06T23:01:27.698Z,8.50
2022-12-06T23:04:29.374Z,7.40
2022-12-06T23:07:31.025Z,8.30
2022-12-06T23:10:32.686Z,7.87
2022-12-06T23:13:34.812Z,7.63
2022-12-06T23:16:36.599Z,7.47
2022-12-06T23:19:38.281Z,7.30
2022-12-06T23:22:39.972Z,7.67
2022-12-06T23:25:41.627Z,8.43
2022-12-06T23:28:44.383Z,7.60
2022-12-06T23:31:47.237Z,8.33
2022-12-06T23:34:48.958Z,7.83
2022-12-06T23:37:50.620Z,7.50
2022-12-06T23:40:52.279Z,8.43
2022-12-06T23:43:54.951Z,7.03
2022-12-06T23:46:56.672Z,7.83
2022-12-06T23:49:58.461Z,7.93
2022-12-06T23:53:00.338Z,6.97
2022-12-06T23:56:06.210Z,7.80
2022-12-06T23:59:11.840Z,7.27
